Time;durP1;ratioP1;P1;durP2;ratioP2;P2;SDS_P1;SDS_P2;PMS_P1;PMS_P2;Temp;Humidity;BMP_temperature;BMP_pressure;BME280_temperature;BME280_humidity;BME280_pressure;Samples;Min_cycle;Max_cycle;Signal;HPM_P1;HPM_P2
2023/10/07 00:01:24;;;;;;;14.27;9.67;;;18.30;86.60;;;;;;4998291;28;20240;-63
2023/10/07 00:03:53;;;;;;;17.43;10.70;;;18.30;86.70;;;;;;4998066;28;20200;-63
2023/10/07 00:06:27;;;;;;;15.67;11.33;;;18.30;86.80;;;;;;4996474;28;20839;-63
2023/10/07 00:08:54;;;;;;;15.07;10.17;;;18.30;87.00;;;;;;4996104;28;20244;-64
2023/10/07 00:11:22;;;;;;;16.50;11.27;;;18.30;87.20;;;;;;5001424;28;20646;-63
2023/10/07 00:13:54;;;;;;;15.83;11.97;;;18.30;87.20;;;;;;5004306;28;20664;-63
2023/10/07 00:16:23;;;;;;;18.57;13.23;;;18.30;87.30;;;;;;4992772;28;20198;-63
2023/10/07 00:18:51;;;;;;;22.50;13.47;;;18.30;87.40;;;;;;4979009;28;20245;-64
2023/10/07 00:21:27;;;;;;;22.07;16.10;;;18.30;87.60;;;;;;4994996;28;20601;-64
2023/10/07 00:23:57;;;;;;;25.97;16.53;;;18.20;87.70;;;;;;4992504;28;20683;-64
2023/10/07 00:26:27;;;;;;;21.67;16.77;;;18.20;87.80;;;;;;4995061;28;20237;-64
2023/10/07 00:29:00;;;;;;;23.27;17.30;;;18.20;87.90;;;;;;4995155;28;20219;-63
2023/10/07 00:31:32;;;;;;;27.40;17.57;;;18.20;88.10;;;;;;4994865;28;20282;-64
2023/10/07 00:34:19;;;;;;;25.60;18.00;;;18.10;88.20;;;;;;4961772;28;20230;-63
2023/10/07 00:36:47;;;;;;;23.73;16.57;;;18.20;88.50;;;;;;4994981;28;20248;-64
2023/10/07 00:39:21;;;;;;;27.07;18.37;;;18.20;88.60;;;;;;4993873;28;20217;-64
2023/10/07 00:41:50;;;;;;;23.20;19.13;;;18.20;88.70;;;;;;4995323;28;20204;-64
2023/10/07 00:44:29;;;;;;;22.50;17.60;;;18.20;88.90;;;;;;4994656;28;20554;-64
2023/10/07 00:49:41;;;;;;;28.50;21.37;;;18.20;89.00;;;;;;4995748;28;20295;-64
2023/10/07 00:52:25;;;;;;;26.53;19.43;;;18.20;89.10;;;;;;4995201;28;20266;-63
2023/10/07 00:55:08;;;;;;;31.60;22.40;;;18.20;89.10;;;;;;4995490;28;20215;-64
2023/10/07 00:57:37;;;;;;;31.37;20.97;;;18.10;89.10;;;;;;4974502;28;20234;-64
2023/10/07 01:00:30;;;;;;;29.77;21.37;;;18.10;89.20;;;;;;4994240;28;20248;-64
2023/10/07 01:03:19;;;;;;;32.47;23.17;;;18.10;89.20;;;;;;4976317;28;20218;-63
2023/10/07 01:08:27;;;;;;;29.43;22.57;;;18.10;89.40;;;;;;4993036;28;20306;-64
2023/10/07 01:11:06;;;;;;;32.40;22.93;;;18.00;89.40;;;;;;4978610;28;20588;-63
2023/10/07 01:13:35;;;;;;;29.47;22.80;;;18.10;89.50;;;;;;4993285;28;20205;-64
2023/10/07 01:16:19;;;;;;;29.43;22.53;;;18.00;89.50;;;;;;4992804;28;20222;-64
2023/10/07 01:18:47;;;;;;;36.57;25.17;;;18.00;89.50;;;;;;4997291;28;20304;-62
2023/10/07 01:21:20;;;;;;;36.23;24.50;;;18.00;89.60;;;;;;4996688;28;20198;-63
2023/10/07 01:23:47;;;;;;;40.73;27.73;;;18.00;89.70;;;;;;4994640;28;20552;-63
2023/10/07 01:26:28;;;;;;;42.53;29.13;;;18.00;89.70;;;;;;4997523;28;20637;-63
2023/10/07 01:32:12;;;;;;;43.20;29.93;;;17.90;90.00;;;;;;4978444;28;20219;-63
2023/10/07 01:34:47;;;;;;;43.37;32.57;;;17.90;90.10;;;;;;4995276;28;20194;-64
2023/10/07 01:37:28;;;;;;;47.27;31.80;;;17.90;90.20;;;;;;4998758;28;20231;-64
2023/10/07 01:39:55;;;;;;;41.90;30.37;;;17.90;90.30;;;;;;4996701;28;20204;-63
2023/10/07 01:42:46;;;;;;;44.47;32.43;;;17.90;90.40;;;;;;4995250;28;20206;-63
2023/10/07 01:45:34;;;;;;;46.37;32.20;;;17.90;90.40;;;;;;4977129;28;20223;-64
2023/10/07 01:48:07;;;;;;;46.27;32.77;;;17.90;90.40;;;;;;4995153;28;20842;-63
2023/10/07 01:50:43;;;;;;;44.63;32.37;;;17.90;90.50;;;;;;4992988;28;20201;-63
2023/10/07 01:53:11;;;;;;;49.03;32.60;;;17.80;90.50;;;;;;4995902;28;20217;-63
2023/10/07 01:55:48;;;;;;;42.73;32.93;;;17.80;90.60;;;;;;4997185;28;20208;-63
2023/10/07 01:58:18;;;;;;;42.17;32.13;;;17.80;90.60;;;;;;4985029;28;20660;-64
2023/10/07 02:00:51;;;;;;;48.90;32.93;;;17.80;90.70;;;;;;4993864;28;20267;-64
2023/10/07 02:03:23;;;;;;;43.77;32.70;;;17.80;90.70;;;;;;4993806;28;20201;-64
2023/10/07 02:05:52;;;;;;;43.40;33.37;;;17.80;90.80;;;;;;4993098;28;20557;-63
2023/10/07 02:08:23;;;;;;;49.40;33.83;;;17.80;90.80;;;;;;4995894;28;20229;-63
2023/10/07 02:10:57;;;;;;;41.17;31.37;;;17.80;90.90;;;;;;4998963;28;21892;-64
2023/10/07 02:13:27;;;;;;;45.70;33.30;;;17.80;90.90;;;;;;4997011;28;20201;-64
2023/10/07 02:15:55;;;;;;;46.20;33.67;;;17.80;90.90;;;;;;4995098;28;20222;-64
2023/10/07 02:18:27;;;;;;;45.13;32.30;;;17.80;90.90;;;;;;4993814;28;20233;-63
2023/10/07 02:21:07;;;;;;;44.27;31.47;;;17.80;90.90;;;;;;4997550;28;20318;-63
2023/10/07 02:23:43;;;;;;;42.23;33.20;;;17.80;90.90;;;;;;4997457;28;20267;-64
2023/10/07 02:26:20;;;;;;;43.33;32.73;;;17.80;90.90;;;;;;5001845;28;20205;-64
2023/10/07 02:28:53;;;;;;;47.17;32.47;;;17.80;90.90;;;;;;4980974;28;20221;-63
2023/10/07 02:31:23;;;;;;;51.13;32.63;;;17.80;91.00;;;;;;5001964;28;20282;-63
2023/10/07 02:34:07;;;;;;;44.40;31.03;;;17.70;91.00;;;;;;4995255;28;20733;-63
2023/10/07 02:36:39;;;;;;;48.50;33.20;;;17.70;91.00;;;;;;4997807;28;20266;-64
2023/10/07 02:39:26;;;;;;;42.23;32.23;;;17.70;91.00;;;;;;4997563;28;20284;-64
2023/10/07 02:41:53;;;;;;;45.20;33.87;;;17.70;91.30;;;;;;4975039;28;20201;-64
2023/10/07 02:44:27;;;;;;;47.10;32.73;;;17.70;91.10;;;;;;5002154;28;20228;-63
2023/10/07 02:46:56;;;;;;;39.33;30.87;;;17.70;91.20;;;;;;5000510;28;20202;-63
2023/10/07 02:49:25;;;;;;;41.33;29.97;;;17.70;91.20;;;;;;4998075;28;20203;-64
2023/10/07 02:51:58;;;;;;;47.00;35.47;;;17.60;91.10;;;;;;4995572;28;20221;-63
2023/10/07 02:54:33;;;;;;;44.83;33.97;;;17.60;91.10;;;;;;4978872;28;20243;-64
2023/10/07 02:57:08;;;;;;;47.73;32.53;;;17.60;91.10;;;;;;4995730;28;20190;-63
2023/10/07 02:59:41;;;;;;;44.23;32.20;;;17.60;91.20;;;;;;4996005;28;20280;-64
2023/10/07 03:05:06;;;;;;;45.10;33.87;;;17.60;91.30;;;;;;4972157;28;20539;-64
2023/10/07 03:07:34;;;;;;;48.40;33.73;;;17.50;91.30;;;;;;4996186;28;20198;-63
2023/10/07 03:10:05;;;;;;;49.77;35.37;;;17.50;91.30;;;;;;4996797;28;20207;-63
2023/10/07 03:12:36;;;;;;;41.20;32.80;;;17.50;91.30;;;;;;4984699;28;20201;-63
2023/10/07 03:15:20;;;;;;;39.23;31.60;;;17.50;91.40;;;;;;4996479;28;20215;-64
2023/10/07 03:17:49;;;;;;;47.17;31.13;;;17.50;91.40;;;;;;4996730;28;20218;-64
2023/10/07 03:28:24;;;;;;;51.17;30.93;;;17.40;91.20;;;;;;4994985;28;20243;-63
2023/10/07 03:30:51;;;;;;;39.87;31.40;;;17.30;91.20;;;;;;4996600;28;20217;-62
2023/10/07 03:33:32;;;;;;;41.13;31.47;;;17.30;91.20;;;;;;4996959;28;20209;-63
2023/10/07 03:38:29;;;;;;;39.80;29.67;;;17.30;91.20;;;;;;4998819;28;20621;-63
2023/10/07 03:40:56;;;;;;;40.53;30.90;;;17.30;91.20;;;;;;4998310;28;20209;-63
2023/10/07 03:43:27;;;;;;;45.97;33.70;;;17.30;91.20;;;;;;4998908;28;20252;-63
2023/10/07 03:45:56;;;;;;;40.00;32.60;;;17.30;91.20;;;;;;4998378;28;20198;-63
2023/10/07 03:48:23;;;;;;;49.00;33.50;;;17.20;91.20;;;;;;4997931;28;20604;-63
2023/10/07 03:51:05;;;;;;;41.53;30.77;;;17.20;91.20;;;;;;4996033;28;20643;-64
2023/10/07 03:53:44;;;;;;;46.27;31.40;;;17.20;91.30;;;;;;4998374;28;20635;-64
2023/10/07 03:56:12;;;;;;;41.43;31.93;;;17.20;91.40;;;;;;4996331;28;20213;-63
2023/10/07 03:58:41;;;;;;;40.50;28.73;;;17.10;91.40;;;;;;4999402;28;20228;-63
2023/10/07 04:01:16;;;;;;;40.10;29.47;;;17.20;91.40;;;;;;4999549;28;20238;-64
2023/10/07 04:03:46;;;;;;;35.80;28.93;;;17.20;91.40;;;;;;4997213;28;20220;-63
2023/10/07 04:06:18;;;;;;;38.67;28.70;;;17.20;91.40;;;;;;4996934;28;20261;-63
2023/10/07 04:08:56;;;;;;;40.50;29.57;;;17.10;91.40;;;;;;4998953;28;20213;-64
2023/10/07 04:11:26;;;;;;;44.43;34.07;;;17.10;91.40;;;;;;4999925;28;20935;-64
2023/10/07 04:13:56;;;;;;;37.23;29.73;;;17.10;91.50;;;;;;5002326;28;20210;-63
2023/10/07 04:16:24;;;;;;;43.20;31.67;;;17.10;91.50;;;;;;5001727;28;20195;-64
2023/10/07 04:18:58;;;;;;;43.63;34.40;;;17.10;91.50;;;;;;4998133;28;20288;-64
2023/10/07 04:21:28;;;;;;;50.17;31.13;;;17.10;91.60;;;;;;4998417;28;20534;-63
2023/10/07 04:23:56;;;;;;;46.30;33.43;;;17.10;91.60;;;;;;4996071;28;20537;-63
2023/10/07 04:26:23;;;;;;;44.30;32.23;;;17.10;91.60;;;;;;5001421;28;20201;-63
2023/10/07 04:28:53;;;;;;;43.60;32.17;;;17.00;91.60;;;;;;5001672;28;20513;-62
2023/10/07 04:31:30;;;;;;;46.37;34.13;;;17.00;91.60;;;;;;4999287;28;20199;-63
2023/10/07 04:34:02;;;;;;;42.37;32.67;;;17.00;91.60;;;;;;4997978;28;20209;-63
2023/10/07 04:36:54;;;;;;;42.13;30.53;;;17.00;91.70;;;;;;4979594;28;20311;-62
2023/10/07 04:39:18;;;;;;;38.70;29.47;;;17.00;91.70;;;;;;4996028;28;20679;-63
2023/10/07 04:41:56;;;;;;;44.13;31.27;;;17.00;91.80;;;;;;4995330;28;20212;-62
2023/10/07 04:50:08;;;;;;;41.20;31.67;;;17.00;91.80;;;;;;4998395;28;20210;-62
2023/10/07 04:52:50;;;;;;;42.47;30.97;;;17.00;91.80;;;;;;4997578;28;20200;-63
2023/10/07 04:55:26;;;;;;;43.90;32.90;;;16.90;91.70;;;;;;4996415;28;20904;-63
2023/10/07 05:03:03;;;;;;;39.77;29.57;;;16.90;91.70;;;;;;4979806;28;20321;-63
2023/10/07 05:05:33;;;;;;;45.27;33.17;;;16.90;91.70;;;;;;4995320;28;20206;-65
2023/10/07 05:08:11;;;;;;;45.60;34.83;;;16.80;91.60;;;;;;4999208;28;20224;-65
2023/10/07 05:10:41;;;;;;;41.37;32.37;;;16.80;91.70;;;;;;4996423;28;20263;-64
2023/10/07 05:13:10;;;;;;;41.67;31.93;;;16.80;91.80;;;;;;4995677;28;20247;-64
2023/10/07 05:15:41;;;;;;;47.10;33.97;;;16.80;91.80;;;;;;4998205;28;20965;-64
2023/10/07 05:18:13;;;;;;;43.33;31.03;;;16.80;91.90;;;;;;4998396;28;20220;-64
2023/10/07 05:20:41;;;;;;;42.77;31.47;;;16.80;91.90;;;;;;4998446;28;20211;-64
2023/10/07 05:23:14;;;;;;;43.13;31.73;;;16.80;91.90;;;;;;4997885;28;20196;-64
2023/10/07 05:25:50;;;;;;;46.33;32.97;;;16.70;91.80;;;;;;4996883;28;20276;-64
2023/10/07 05:28:21;;;;;;;46.50;32.57;;;16.70;91.80;;;;;;4995584;28;20200;-64
2023/10/07 05:30:50;;;;;;;42.33;31.47;;;16.70;91.80;;;;;;4994494;28;20255;-64
2023/10/07 05:33:20;;;;;;;40.47;32.10;;;16.70;92.10;;;;;;4994477;28;20209;-64
2023/10/07 05:35:49;;;;;;;43.27;31.63;;;16.70;91.80;;;;;;4995195;28;20212;-64
2023/10/07 05:38:19;;;;;;;43.47;32.50;;;16.80;91.90;;;;;;4994635;28;20627;-64
2023/10/07 05:40:49;;;;;;;44.90;32.60;;;16.70;91.90;;;;;;4994559;28;20223;-64
2023/10/07 05:43:17;;;;;;;44.60;32.03;;;16.80;91.90;;;;;;4977246;28;20621;-64
2023/10/07 05:45:45;;;;;;;42.63;32.63;;;16.80;91.90;;;;;;4994622;28;20267;-64
2023/10/07 05:48:12;;;;;;;45.80;33.47;;;16.90;91.90;;;;;;4993868;28;20283;-64
2023/10/07 05:50:40;;;;;;;45.33;33.33;;;16.90;91.90;;;;;;4992879;28;20205;-64
2023/10/07 05:53:07;;;;;;;46.40;35.47;;;16.90;91.90;;;;;;4993658;28;20657;-64
2023/10/07 05:55:36;;;;;;;52.77;37.40;;;16.90;91.90;;;;;;4995156;28;20548;-64
2023/10/07 05:58:04;;;;;;;47.93;35.80;;;17.00;92.00;;;;;;4994380;28;20234;-64
2023/10/07 06:00:31;;;;;;;47.73;36.20;;;17.00;92.10;;;;;;4993714;28;20677;-63
2023/10/07 06:03:06;;;;;;;47.73;35.67;;;17.00;92.20;;;;;;4994456;28;20228;-65
2023/10/07 06:05:37;;;;;;;50.67;36.57;;;17.10;92.30;;;;;;4990124;28;20196;-64
2023/10/07 06:08:05;;;;;;;47.77;35.80;;;17.20;92.30;;;;;;4996883;28;20198;-64
2023/10/07 06:10:36;;;;;;;51.27;35.37;;;17.20;92.40;;;;;;4995224;28;20293;-66
2023/10/07 06:13:08;;;;;;;52.70;34.50;;;17.30;92.40;;;;;;4993443;28;20260;-64
2023/10/07 06:15:39;;;;;;;49.33;34.67;;;17.30;92.40;;;;;;4995871;28;20316;-64
2023/10/07 06:18:07;;;;;;;50.27;34.70;;;17.40;92.30;;;;;;4997799;28;20225;-64
2023/10/07 06:20:37;;;;;;;50.20;35.27;;;17.50;92.30;;;;;;4992943;28;20194;-64
2023/10/07 06:23:16;;;;;;;54.87;37.13;;;17.60;92.30;;;;;;4994596;28;20559;-65
2023/10/07 06:25:51;;;;;;;50.00;34.93;;;17.60;92.20;;;;;;4994542;28;20193;-64
2023/10/07 06:31:13;;;;;;;48.20;35.80;;;17.70;92.20;;;;;;4996698;28;20541;-64
2023/10/07 06:33:46;;;;;;;48.50;38.23;;;17.80;92.20;;;;;;4995382;28;20205;-64
2023/10/07 06:36:14;;;;;;;51.07;36.37;;;17.90;92.20;;;;;;4993934;28;20205;-64
2023/10/07 06:38:52;;;;;;;50.63;36.73;;;18.00;92.20;;;;;;4993142;28;20328;-64
2023/10/07 06:41:20;;;;;;;53.07;36.03;;;18.10;92.30;;;;;;4992396;28;20636;-64
2023/10/07 06:43:50;;;;;;;52.20;38.10;;;18.20;92.30;;;;;;4995455;28;20224;-64
2023/10/07 06:46:20;;;;;;;46.67;38.10;;;18.20;92.30;;;;;;4997308;28;20209;-64
2023/10/07 06:48:49;;;;;;;54.60;39.77;;;18.40;92.30;;;;;;4996475;28;20224;-64
2023/10/07 06:51:16;;;;;;;52.77;38.23;;;18.50;92.30;;;;;;4996210;28;20203;-64
2023/10/07 06:53:44;;;;;;;52.80;40.23;;;18.60;92.30;;;;;;4994481;28;20213;-65
2023/10/07 06:56:20;;;;;;;48.63;39.13;;;18.70;92.20;;;;;;4992011;28;20209;-64
2023/10/07 06:58:53;;;;;;;52.33;38.47;;;18.80;92.20;;;;;;4995142;28;20639;-64
2023/10/07 07:04:14;;;;;;;52.00;37.60;;;19.00;92.10;;;;;;4996679;28;20265;-64
2023/10/07 07:06:46;;;;;;;53.53;37.53;;;19.10;92.00;;;;;;4998114;28;20202;-64
2023/10/07 07:12:23;;;;;;;51.30;37.17;;;19.30;92.00;;;;;;4950807;28;20211;-64
2023/10/07 07:14:51;;;;;;;46.77;34.60;;;19.50;91.90;;;;;;4987808;28;20236;-64
2023/10/07 07:17:29;;;;;;;44.53;35.83;;;19.60;91.70;;;;;;4998450;28;20640;-64
2023/10/07 07:22:47;;;;;;;41.97;35.90;;;19.80;91.40;;;;;;4996528;28;20279;-64
2023/10/07 07:27:50;;;;;;;46.87;36.57;;;20.10;91.20;;;;;;4996352;28;20207;-65
2023/10/07 07:30:20;;;;;;;47.93;36.43;;;20.20;91.10;;;;;;4996686;28;20214;-64
2023/10/07 07:32:55;;;;;;;48.00;36.40;;;20.40;90.90;;;;;;4981513;28;20608;-65
2023/10/07 07:35:37;;;;;;;48.97;34.47;;;20.50;90.60;;;;;;4983645;28;20253;-65
2023/10/07 07:38:22;;;;;;;45.90;36.20;;;20.70;90.40;;;;;;4999724;28;20727;-65
2023/10/07 07:40:50;;;;;;;43.83;35.67;;;20.80;90.20;;;;;;4998578;28;20204;-64
2023/10/07 07:43:25;;;;;;;43.53;34.97;;;21.00;89.80;;;;;;4997921;28;20212;-64
2023/10/07 07:46:03;;;;;;;55.73;36.30;;;21.20;89.40;;;;;;4995432;28;20585;-65
2023/10/07 07:48:36;;;;;;;47.53;35.17;;;21.30;88.90;;;;;;4996110;28;20208;-64
2023/10/07 07:51:03;;;;;;;48.43;38.00;;;21.50;88.30;;;;;;5003026;28;20203;-64
2023/10/07 07:53:31;;;;;;;48.87;36.30;;;21.60;87.80;;;;;;5000292;28;20243;-65
2023/10/07 07:55:59;;;;;;;46.83;35.70;;;21.70;87.30;;;;;;4999045;28;20279;-64
2023/10/07 07:58:26;;;;;;;48.60;36.80;;;21.90;86.90;;;;;;4994015;28;20551;-64
2023/10/07 08:01:01;;;;;;;46.63;34.77;;;22.10;86.50;;;;;;4996418;28;20224;-64
2023/10/07 08:03:29;;;;;;;48.40;34.57;;;22.20;85.80;;;;;;4998352;28;20192;-64
2023/10/07 08:05:56;;;;;;;49.20;37.03;;;22.40;85.30;;;;;;4998598;28;20540;-64
2023/10/07 08:08:27;;;;;;;45.17;35.27;;;22.60;84.30;;;;;;4974094;28;20233;-65
2023/10/07 08:10:55;;;;;;;45.43;33.93;;;22.70;84.50;;;;;;4991893;28;20294;-64
2023/10/07 08:13:27;;;;;;;47.30;34.50;;;22.90;83.50;;;;;;4994694;28;20228;-64
2023/10/07 08:15:55;;;;;;;48.07;37.50;;;23.00;83.00;;;;;;4994532;28;20606;-65
2023/10/07 08:18:28;;;;;;;49.23;38.07;;;23.20;82.20;;;;;;4992699;28;20666;-65
2023/10/07 08:20:56;;;;;;;48.23;37.33;;;23.30;81.60;;;;;;4993798;28;20636;-65
2023/10/07 08:23:29;;;;;;;52.87;38.20;;;23.40;81.00;;;;;;4998821;28;20193;-65
2023/10/07 08:26:22;;;;;;;47.33;37.13;;;23.50;80.40;;;;;;4996192;28;20506;-63
2023/10/07 08:31:36;;;;;;;53.97;39.17;;;23.80;79.50;;;;;;4995916;28;20205;-64
2023/10/07 08:36:36;;;;;;;52.23;39.17;;;24.00;78.30;;;;;;4995297;28;20632;-64
2023/10/07 08:39:13;;;;;;;52.20;37.87;;;24.10;78.00;;;;;;4994942;28;20613;-64
2023/10/07 08:41:40;;;;;;;48.20;34.53;;;24.20;77.60;;;;;;4996432;28;20200;-64
2023/10/07 08:46:39;;;;;;;51.20;35.37;;;24.40;76.40;;;;;;4996225;28;20205;-64
2023/10/07 08:49:15;;;;;;;54.30;35.57;;;24.50;76.30;;;;;;4997265;28;20644;-65
2023/10/07 08:51:43;;;;;;;49.40;35.43;;;24.60;75.90;;;;;;4995426;28;20204;-65
2023/10/07 08:54:11;;;;;;;42.77;34.73;;;24.70;75.20;;;;;;4993945;28;20220;-64
2023/10/07 08:56:40;;;;;;;44.23;34.50;;;24.80;74.90;;;;;;4996615;28;20204;-65
2023/10/07 08:59:07;;;;;;;38.60;31.30;;;25.00;74.80;;;;;;4996362;28;20231;-64
2023/10/07 09:01:35;;;;;;;45.07;35.13;;;25.00;74.10;;;;;;4997350;28;20253;-65
2023/10/07 09:04:07;;;;;;;48.70;33.00;;;25.10;73.60;;;;;;4995282;28;20195;-64
2023/10/07 09:06:37;;;;;;;44.10;33.50;;;25.20;73.10;;;;;;4993858;28;20225;-64
2023/10/07 09:09:07;;;;;;;44.27;32.27;;;25.40;72.70;;;;;;4994587;28;20257;-65
2023/10/07 09:11:38;;;;;;;44.67;31.37;;;25.40;72.20;;;;;;4994158;28;20208;-65
2023/10/07 09:14:17;;;;;;;50.03;32.10;;;25.50;72.00;;;;;;4997399;28;20219;-65
2023/10/07 09:16:46;;;;;;;38.83;31.33;;;25.60;71.30;;;;;;4996949;28;20207;-65
2023/10/07 09:19:19;;;;;;;47.97;32.37;;;25.70;71.10;;;;;;4993295;28;20250;-65
2023/10/07 09:21:56;;;;;;;45.10;33.27;;;25.70;70.60;;;;;;4993821;28;20204;-64
2023/10/07 09:24:24;;;;;;;49.03;34.43;;;25.80;70.40;;;;;;4994605;28;20200;-65
2023/10/07 09:26:58;;;;;;;47.83;35.87;;;25.90;69.90;;;;;;4992269;28;20202;-65
2023/10/07 09:29:32;;;;;;;45.90;34.43;;;25.90;68.90;;;;;;4994880;28;20217;-65
2023/10/07 09:32:16;;;;;;;41.70;34.67;;;25.90;69.30;;;;;;4995868;28;20418;-65
2023/10/07 09:34:47;;;;;;;43.17;33.37;;;25.90;69.60;;;;;;4995533;28;20208;-63
2023/10/07 09:37:23;;;;;;;44.27;33.97;;;26.10;69.60;;;;;;4999037;28;20199;-62
2023/10/07 09:39:55;;;;;;;46.70;36.50;;;26.20;69.30;;;;;;4994715;28;20212;-64
2023/10/07 09:42:37;;;;;;;42.80;32.73;;;26.30;68.90;;;;;;4993476;28;20208;-63
2023/10/07 09:47:38;;;;;;;45.57;33.37;;;26.50;67.40;;;;;;4997583;28;20215;-63
2023/10/07 09:50:24;;;;;;;45.43;33.93;;;26.50;67.30;;;;;;4996183;28;20285;-63
2023/10/07 09:53:27;;;;;;;43.50;33.03;;;26.60;67.20;;;;;;4996873;28;20224;-64
2023/10/07 09:56:29;;;;;;;43.73;34.57;;;26.70;67.10;;;;;;4994073;28;20191;-64
2023/10/07 09:59:40;;;;;;;41.30;31.57;;;26.70;66.50;;;;;;4994829;28;20230;-64
2023/10/07 10:02:25;;;;;;;46.53;34.70;;;26.70;65.60;;;;;;4994605;28;20232;-64
2023/10/07 10:05:15;;;;;;;49.47;34.87;;;26.80;65.90;;;;;;5003751;28;20561;-63
2023/10/07 10:08:20;;;;;;;44.50;30.10;;;26.80;65.60;;;;;;4993839;28;20200;-63
2023/10/07 10:10:49;;;;;;;41.57;33.57;;;26.80;65.70;;;;;;4996468;28;20671;-63
2023/10/07 10:14:29;;;;;;;42.37;31.83;;;26.90;66.00;;;;;;4996565;28;20208;-63
2023/10/07 10:16:29;;;;;;;39.17;29.60;;;27.00;66.00;;;;;;4975840;28;20224;-64
2023/10/07 10:19:17;;;;;;;36.40;30.80;;;27.10;66.10;;;;;;4992618;28;20208;-64
2023/10/07 10:21:44;;;;;;;50.80;31.70;;;27.20;65.50;;;;;;4996739;28;20227;-64
2023/10/07 10:24:18;;;;;;;43.20;33.63;;;27.40;65.30;;;;;;4996576;28;20208;-64
2023/10/07 10:26:45;;;;;;;41.47;31.97;;;27.50;64.50;;;;;;4997512;28;20200;-63
2023/10/07 10:29:20;;;;;;;40.93;31.30;;;27.50;64.30;;;;;;4995043;28;20593;-64
2023/10/07 10:31:52;;;;;;;35.43;28.20;;;27.60;64.20;;;;;;4994662;28;20214;-64
2023/10/07 10:34:22;;;;;;;39.37;30.40;;;27.60;64.60;;;;;;4993934;28;20208;-63
2023/10/07 10:36:49;;;;;;;36.67;29.93;;;27.70;63.70;;;;;;4996813;28;20217;-64
2023/10/07 10:39:18;;;;;;;40.80;30.03;;;27.70;63.70;;;;;;5001384;28;20220;-64
2023/10/07 10:42:09;;;;;;;38.17;28.87;;;27.80;63.80;;;;;;5004201;28;20205;-64
2023/10/07 10:44:42;;;;;;;38.13;29.77;;;27.90;63.80;;;;;;5002712;28;20200;-64
2023/10/07 10:47:09;;;;;;;37.13;27.43;;;28.00;63.20;;;;;;4997392;28;20193;-63
2023/10/07 10:49:36;;;;;;;34.80;26.77;;;28.00;62.70;;;;;;4995511;28;20578;-63
2023/10/07 10:52:04;;;;;;;34.50;25.90;;;28.10;62.50;;;;;;4996677;28;20232;-64
2023/10/07 10:54:32;;;;;;;31.17;25.47;;;28.20;62.60;;;;;;4993957;28;20212;-63
2023/10/07 10:56:59;;;;;;;38.73;26.27;;;28.30;62.50;;;;;;4993774;28;20525;-63
2023/10/07 10:59:42;;;;;;;37.03;27.67;;;28.30;61.90;;;;;;4996918;28;20659;-65
2023/10/07 11:02:17;;;;;;;36.23;27.07;;;28.40;61.50;;;;;;4996409;28;20236;-64
2023/10/07 11:04:45;;;;;;;39.27;26.40;;;28.40;60.80;;;;;;4996572;28;20219;-64
2023/10/07 11:07:14;;;;;;;30.47;24.23;;;28.40;60.20;;;;;;4996713;28;20208;-64
2023/10/07 11:09:43;;;;;;;36.03;27.20;;;28.50;60.40;;;;;;4996454;28;20263;-64
2023/10/07 11:12:12;;;;;;;32.07;27.03;;;28.50;60.40;;;;;;4995296;28;20287;-63
2023/10/07 11:14:43;;;;;;;44.07;25.67;;;28.60;60.30;;;;;;4997472;28;20290;-64
2023/10/07 11:17:12;;;;;;;34.37;25.13;;;28.70;60.30;;;;;;4997444;28;20201;-64
2023/10/07 11:19:41;;;;;;;37.40;26.80;;;28.70;60.10;;;;;;4997361;28;20244;-64
2023/10/07 11:22:19;;;;;;;34.43;26.30;;;28.70;59.90;;;;;;4998533;28;20250;-64
2023/10/07 11:24:50;;;;;;;37.40;25.60;;;28.80;59.40;;;;;;4995582;28;20228;-64
2023/10/07 11:27:23;;;;;;;39.13;26.00;;;28.80;59.20;;;;;;4995880;28;20295;-64
2023/10/07 11:30:11;;;;;;;33.63;24.30;;;28.80;58.70;;;;;;4998801;28;20204;-64
2023/10/07 11:32:39;;;;;;;28.73;24.03;;;28.90;58.90;;;;;;4997521;28;20569;-65
2023/10/07 11:35:19;;;;;;;28.53;23.70;;;28.90;58.80;;;;;;4999803;28;20208;-64
2023/10/07 11:37:57;;;;;;;30.30;25.07;;;28.90;58.70;;;;;;4995783;28;20227;-64
2023/10/07 11:40:26;;;;;;;32.40;22.97;;;29.00;57.70;;;;;;4996168;28;20278;-65
2023/10/07 11:42:53;;;;;;;31.60;24.00;;;29.00;57.60;;;;;;4995134;28;20559;-65
2023/10/07 11:45:22;;;;;;;29.57;24.13;;;29.00;57.90;;;;;;4995327;28;20559;-65
2023/10/07 11:47:49;;;;;;;33.03;25.97;;;29.00;57.80;;;;;;4996697;28;20185;-64
2023/10/07 11:50:17;;;;;;;30.47;23.47;;;29.00;56.60;;;;;;5001657;28;20514;-65
2023/10/07 11:52:46;;;;;;;28.60;24.70;;;29.00;56.90;;;;;;4998797;28;20203;-65
2023/10/07 11:55:16;;;;;;;27.97;24.30;;;28.90;57.30;;;;;;4996604;28;20215;-65
2023/10/07 11:57:44;;;;;;;32.67;24.43;;;28.90;57.70;;;;;;4994823;28;20819;-65
2023/10/07 12:00:27;;;;;;;31.60;24.87;;;28.90;57.70;;;;;;4996918;28;20255;-65
2023/10/07 12:02:57;;;;;;;31.20;23.73;;;29.00;57.50;;;;;;4997381;28;20192;-65
2023/10/07 12:05:28;;;;;;;31.93;24.10;;;29.00;57.60;;;;;;5002183;28;20244;-64
2023/10/07 12:07:59;;;;;;;27.83;22.70;;;29.10;57.80;;;;;;5000968;28;20203;-65
2023/10/07 12:10:33;;;;;;;29.60;23.30;;;29.10;57.70;;;;;;4998300;28;20236;-64
2023/10/07 12:13:00;;;;;;;36.00;23.50;;;29.10;57.30;;;;;;4996372;28;20200;-65
2023/10/07 12:15:27;;;;;;;29.77;24.33;;;29.20;56.30;;;;;;4994680;28;20236;-64
2023/10/07 12:17:54;;;;;;;32.53;25.23;;;29.20;56.00;;;;;;4996346;28;20204;-64
2023/10/07 12:20:22;;;;;;;29.83;22.63;;;29.20;56.20;;;;;;4997961;28;20220;-64
2023/10/07 12:22:49;;;;;;;29.07;21.77;;;29.20;56.50;;;;;;5001271;28;20189;-65
2023/10/07 12:25:18;;;;;;;28.70;24.43;;;29.10;57.20;;;;;;4995505;28;20205;-64
2023/10/07 12:27:50;;;;;;;32.40;24.37;;;29.10;57.40;;;;;;4995357;28;20239;-64
2023/10/07 12:30:21;;;;;;;29.83;23.93;;;28.90;56.50;;;;;;4996063;28;20243;-64
2023/10/07 12:32:49;;;;;;;33.03;24.43;;;28.80;56.90;;;;;;4993252;28;20270;-66
2023/10/07 12:35:18;;;;;;;31.43;22.63;;;28.80;57.00;;;;;;5001521;28;20200;-64
2023/10/07 12:37:48;;;;;;;31.10;23.03;;;28.80;57.30;;;;;;5000099;28;20522;-65
2023/10/07 12:40:17;;;;;;;25.47;22.77;;;28.80;57.30;;;;;;5000312;28;20223;-64
2023/10/07 12:42:45;;;;;;;32.73;23.77;;;28.90;57.10;;;;;;4997515;28;20197;-64
2023/10/07 12:45:13;;;;;;;28.10;21.40;;;28.90;56.90;;;;;;4999337;28;20673;-64
2023/10/07 12:47:43;;;;;;;30.97;24.60;;;29.00;56.90;;;;;;4995191;28;20193;-64
2023/10/07 12:50:23;;;;;;;26.47;22.20;;;29.10;56.60;;;;;;4994028;28;20209;-64
2023/10/07 12:52:52;;;;;;;28.57;21.87;;;29.10;56.40;;;;;;4998592;28;20266;-64
2023/10/07 12:55:19;;;;;;;36.33;25.50;;;29.10;56.00;;;;;;4995723;28;20302;-65
2023/10/07 12:57:49;;;;;;;34.23;24.73;;;29.10;55.10;;;;;;4999057;28;20232;-65
2023/10/07 13:00:22;;;;;;;26.47;21.70;;;29.00;54.70;;;;;;4997949;28;20244;-65
2023/10/07 13:02:50;;;;;;;28.73;22.83;;;28.90;55.20;;;;;;4995440;28;20208;-65
2023/10/07 13:05:20;;;;;;;25.10;21.03;;;28.90;55.10;;;;;;4994337;28;20212;-65
2023/10/07 13:07:53;;;;;;;34.60;22.70;;;28.80;55.20;;;;;;4994370;28;20621;-64
2023/10/07 13:10:20;;;;;;;27.47;20.97;;;28.90;55.30;;;;;;5003047;28;20196;-65
2023/10/07 13:12:49;;;;;;;26.07;20.80;;;28.90;55.70;;;;;;4998833;28;20859;-65
2023/10/07 13:15:18;;;;;;;30.03;23.57;;;28.90;55.80;;;;;;4992872;28;20204;-64
2023/10/07 13:17:47;;;;;;;29.23;23.70;;;28.80;54.60;;;;;;4997134;28;20291;-65
2023/10/07 13:20:23;;;;;;;28.00;22.33;;;28.80;54.60;;;;;;4995364;28;20313;-65
2023/10/07 13:22:51;;;;;;;29.83;24.23;;;28.70;54.90;;;;;;4994658;28;20255;-65
2023/10/07 13:25:19;;;;;;;27.40;21.90;;;28.70;54.50;;;;;;4993336;28;20306;-65
2023/10/07 13:27:47;;;;;;;28.93;21.60;;;28.60;54.60;;;;;;4992859;28;20209;-65
2023/10/07 13:30:16;;;;;;;24.37;21.40;;;28.50;55.30;;;;;;4994182;28;20204;-64
2023/10/07 13:32:44;;;;;;;27.33;21.23;;;28.50;55.60;;;;;;4992115;28;20196;-64
2023/10/07 13:35:14;;;;;;;23.03;20.50;;;28.50;55.70;;;;;;4993187;28;20211;-64
2023/10/07 13:37:45;;;;;;;28.20;20.33;;;28.50;55.40;;;;;;4993222;28;20214;-65
2023/10/07 13:40:16;;;;;;;28.77;23.20;;;28.60;55.70;;;;;;4993931;28;20228;-64
2023/10/07 13:42:47;;;;;;;26.80;22.27;;;28.60;55.60;;;;;;4994426;28;20296;-64
2023/10/07 13:45:15;;;;;;;25.50;21.83;;;28.60;55.20;;;;;;4993439;28;20318;-64
2023/10/07 13:47:44;;;;;;;22.80;20.40;;;28.60;55.40;;;;;;4993175;28;20271;-64
2023/10/07 13:50:14;;;;;;;22.30;17.30;;;28.50;55.50;;;;;;4994376;28;20231;-64
2023/10/07 13:53:42;;;;;;;23.53;18.87;;;28.50;55.90;;;;;;4995327;28;20212;-65